Cambridge, MD

5:39 AM EST on December 03, 2016 (GMT -0500)
Cambridge-Dorchester

Weather History for KCGE - December, 2013

Change the Weather History Date:

Sunday, December 8, 2013

  Actual Average (KESN) Record (KESN)
Temperature  
Mean Temperature 34 °F -  
Max Temperature 35 °F 51 °F 70 °F (1966)
Min Temperature 32 °F 36 °F 20 °F (1965)
Degree Days  
Heating Degree Days 32    
Moisture  
Dew Point 29 °F    
Average Humidity 83    
Maximum Humidity 93    
Minimum Humidity 65    
Precipitation  
Precipitation 0.00 in - - ()
Sea Level Pressure  
Sea Level Pressure 30.46 in    
Wind  
Wind Speed 6 mph (NNE)    
Max Wind Speed 12 mph    
Max Gust Speed 16 mph    
Visibility 6 miles    
Events      
Averages and records for this station are not official NWS values.
T = Trace of Precipitation, MM = Missing Value Source: NWS Daily Summary

Daily Weather History Graph

Daily Weather History Graph

Search for Another Location

Airport or City:

Trip Planner

Search our weather history database for the weather conditions in past years. The results will help you decide how hot, cold, wet, or windy it might be!

Date:

Astronomy

Dec. 08, 2013 Rise Set
Actual Time 7:09 AM EST 4:42 PM EST
Civil Twilight 6:39 AM EST 5:12 PM EST
Nautical Twilight 6:06 AM EST 5:45 PM EST
Astronomical Twilight 5:34 AM EST 6:17 PM EST
Moon 11:31 AM EST (12/8) 11:26 PM EST (12/8)
Length of Visible Light 10h 32m
Length of Day
9h 33m
Waxing Crescent, 40% of the Moon is Illuminated
Dec 8
Waxing Crescent
Dec 9
First Quarter
Dec 17
Full
Dec 25
Last Quarter
Jan 1
New

Hourly Weather History & Observations

Time (EST) Temp. Windchill Dew Point Humidity Pressure Visibility Wind Dir Wind Speed Gust Speed Precip Events Conditions
12:16 AM 35.6 °F 29.9 °F 26.6 °F 70% 30.53 in 10.0 mi North 6.9 mph - N/A   Clear
12:35 AM 35.6 °F 31.7 °F 26.6 °F 70% 30.54 in 10.0 mi North 4.6 mph - N/A   Clear
12:56 AM 33.8 °F 26.4 °F 23.0 °F 65% 30.52 in 10.0 mi North 9.2 mph - N/A   Clear
3:16 AM 33.8 °F 29.6 °F 23.0 °F 65% 30.53 in 10.0 mi North 4.6 mph - N/A   Clear
3:36 AM 33.8 °F 28.6 °F 24.8 °F 70% 30.53 in 10.0 mi North 5.8 mph - N/A   Clear
3:56 AM 33.8 °F 27.7 °F 24.8 °F 70% 30.52 in 10.0 mi North 6.9 mph - N/A   Clear
4:16 AM 33.8 °F 27.0 °F 24.8 °F 70% 30.52 in 10.0 mi North 8.1 mph - N/A   Clear
4:36 AM 33.8 °F 26.4 °F 23.0 °F 65% 30.52 in 10.0 mi North 9.2 mph - N/A   Clear
4:56 AM 33.8 °F 27.0 °F 24.8 °F 70% 30.51 in 10.0 mi North 8.1 mph - N/A   Clear
5:16 AM 33.8 °F 25.3 °F 24.8 °F 70% 30.53 in 10.0 mi NNE 11.5 mph - N/A   Clear
5:36 AM 33.8 °F 27.7 °F 24.8 °F 70% 30.53 in 10.0 mi NE 6.9 mph 16.1 mph N/A   Clear
5:56 AM 33.8 °F 29.6 °F 24.8 °F 70% 30.55 in 10.0 mi NE 4.6 mph - N/A   Clear
6:16 AM 33.8 °F 27.7 °F 26.6 °F 75% 30.55 in 10.0 mi NNE 6.9 mph - N/A   Mostly Cloudy
6:36 AM 33.8 °F 25.8 °F 26.6 °F 75% 30.56 in 10.0 mi NNE 10.4 mph - N/A   Mostly Cloudy
6:56 AM 33.8 °F 25.3 °F 24.8 °F 70% 30.55 in 10.0 mi NNE 11.5 mph 16.1 mph N/A   Mostly Cloudy
7:16 AM 33.8 °F 25.3 °F 24.8 °F 70% 30.55 in 10.0 mi NNE 11.5 mph - N/A   Overcast
7:36 AM 33.8 °F 28.6 °F 23.0 °F 65% 30.54 in 10.0 mi NE 5.8 mph - N/A   Overcast
7:56 AM 33.8 °F 26.4 °F 23.0 °F 65% 30.54 in 10.0 mi NNE 9.2 mph - N/A   Mostly Cloudy
8:16 AM 33.8 °F 27.7 °F 23.0 °F 65% 30.52 in 10.0 mi NE 6.9 mph - N/A   Scattered Clouds
8:36 AM 33.8 °F 28.6 °F 23.0 °F 65% 30.53 in 10.0 mi NE 5.8 mph - N/A   Clear
8:57 AM 33.8 °F 29.6 °F 23.0 °F 65% 30.56 in 10.0 mi NE 4.6 mph - N/A   Scattered Clouds
9:17 AM 33.8 °F 28.6 °F 24.8 °F 70% 30.56 in 2.0 mi ENE 5.8 mph - N/A   Overcast
9:37 AM 32.0 °F 25.6 °F 26.6 °F 80% 30.54 in 1.2 mi NE 6.9 mph - N/A   Overcast
9:57 AM 32.0 °F 26.4 °F 28.4 °F 87% 30.56 in 3.0 mi NE 5.8 mph - N/A   Overcast
10:17 AM 32.0 °F - 28.4 °F 87% 30.56 in 2.5 mi Calm Calm - N/A   Overcast
10:37 AM 32.0 °F 28.7 °F 28.4 °F 87% 30.56 in 0.8 mi NNE 3.5 mph - N/A   Overcast
10:57 AM 32.0 °F 27.5 °F 28.4 °F 87% 30.54 in 1.2 mi NNE 4.6 mph - N/A   Overcast
11:17 AM 32.0 °F 24.8 °F 28.4 °F 87% 30.54 in 4.0 mi NNE 8.1 mph - N/A   Overcast
11:37 AM 32.0 °F 24.2 °F 28.4 °F 87% 30.52 in 7.0 mi NNE 9.2 mph - N/A   Mostly Cloudy
11:57 AM 32.0 °F 25.6 °F 28.4 °F 87% 30.49 in 7.0 mi NE 6.9 mph - N/A   Overcast
12:17 PM 32.0 °F 24.8 °F 28.4 °F 87% 30.49 in 5.0 mi NE 8.1 mph - N/A   Overcast
12:37 PM 32.0 °F 25.6 °F 28.4 °F 87% 30.50 in 2.5 mi NNE 6.9 mph - N/A   Overcast
12:57 PM 32.0 °F 27.5 °F 28.4 °F 87% 30.54 in 3.0 mi NNW 4.6 mph - N/A   Overcast
1:17 PM 32.0 °F 26.4 °F 28.4 °F 87% 30.52 in 1.5 mi North 5.8 mph - N/A   Overcast
1:37 PM 32.0 °F 25.6 °F 28.4 °F 87% 30.48 in 2.0 mi NNE 6.9 mph - N/A   Overcast
1:57 PM 32.0 °F 27.5 °F 28.4 °F 87% 30.49 in 3.0 mi North 4.6 mph - N/A   Overcast
2:17 PM 32.0 °F 25.6 °F 28.4 °F 87% 30.44 in 4.0 mi NE 6.9 mph - N/A   Mostly Cloudy
2:37 PM 32.0 °F 26.4 °F 28.4 °F 87% 30.44 in 5.0 mi NE 5.8 mph - N/A   Mostly Cloudy
2:57 PM 32.0 °F 25.6 °F 30.2 °F 93% 30.43 in 2.5 mi NE 6.9 mph - N/A   Overcast
3:17 PM 32.0 °F 27.5 °F 30.2 °F 93% 30.41 in 5.0 mi NE 4.6 mph - N/A   Overcast
3:37 PM 32.0 °F 28.7 °F 30.2 °F 93% 30.42 in 2.5 mi NE 3.5 mph - N/A   Overcast
3:57 PM 33.8 °F 30.8 °F 32.0 °F 93% 30.45 in 2.0 mi North 3.5 mph - N/A   Overcast
4:17 PM 33.8 °F 29.6 °F 32.0 °F 93% 30.44 in 3.0 mi North 4.6 mph - N/A   Overcast
4:37 PM 33.8 °F 29.6 °F 32.0 °F 93% 30.43 in 4.0 mi NNE 4.6 mph - N/A   Overcast
4:57 PM 33.8 °F 29.6 °F 32.0 °F 93% 30.42 in 3.0 mi NE 4.6 mph - N/A   Overcast
5:18 PM 33.8 °F 28.6 °F 32.0 °F 93% 30.41 in 7.0 mi NNE 5.8 mph - N/A   Overcast
5:38 PM 33.8 °F 28.6 °F 32.0 °F 93% 30.42 in 5.0 mi North 5.8 mph - N/A   Overcast
5:58 PM 33.8 °F 28.6 °F 32.0 °F 93% 30.41 in 4.0 mi NNE 5.8 mph - N/A   Overcast
6:18 PM 33.8 °F 29.6 °F 32.0 °F 93% 30.41 in 5.0 mi North 4.6 mph - N/A   Overcast
6:38 PM 33.8 °F 28.6 °F 32.0 °F 93% 30.40 in 4.0 mi North 5.8 mph - N/A   Overcast
6:58 PM 35.6 °F 30.7 °F 32.0 °F 87% 30.40 in 5.0 mi NNE 5.8 mph - N/A   Overcast
7:18 PM 35.6 °F 30.7 °F 33.8 °F 93% 30.39 in 7.0 mi NNE 5.8 mph - N/A   Overcast
7:38 PM 35.6 °F 32.8 °F 33.8 °F 93% 30.37 in 7.0 mi NNE 3.5 mph - N/A   Overcast
8:18 PM 35.6 °F 31.7 °F 33.8 °F 93% 30.36 in 7.0 mi NNE 4.6 mph - N/A   Overcast
8:38 PM 35.6 °F 31.7 °F 33.8 °F 93% 30.34 in 5.0 mi NNE 4.6 mph - N/A   Overcast
8:58 PM 35.6 °F 30.7 °F 33.8 °F 93% 30.33 in 4.0 mi NNE 5.8 mph - N/A   Overcast
9:18 PM 35.6 °F 31.7 °F 33.8 °F 93% 30.31 in 3.0 mi NNE 4.6 mph - N/A   Overcast
9:38 PM 35.6 °F 32.8 °F 33.8 °F 93% 30.30 in 2.0 mi NNE 3.5 mph - N/A   Overcast
9:58 PM 35.6 °F 31.7 °F 33.8 °F 93% 30.30 in 1.8 mi NNE 4.6 mph - N/A   Overcast
10:18 PM 35.6 °F 30.7 °F 33.8 °F 93% 30.31 in 2.0 mi North 5.8 mph - N/A   Overcast
10:38 PM 35.6 °F 30.7 °F 33.8 °F 93% 30.31 in 1.8 mi NNW 5.8 mph - N/A   Overcast
10:58 PM 35.6 °F 29.9 °F 33.8 °F 93% 30.29 in 2.5 mi North 6.9 mph - N/A   Overcast
11:18 PM 35.6 °F 32.8 °F 33.8 °F 93% 30.26 in 2.5 mi North 3.5 mph - N/A   Overcast
11:38 PM 35.6 °F 29.9 °F 33.8 °F 93% 30.27 in 3.0 mi NNW 6.9 mph - N/A   Overcast
11:58 PM 35.6 °F 30.7 °F 33.8 °F 93% 30.25 in 3.0 mi NNW 5.8 mph - N/A   Overcast